createdAt,value
2023-05-21T00:00:56.315Z,0.00
2023-05-21T00:02:11.252Z,0.00
2023-05-21T00:03:26.252Z,0.00
2023-05-21T00:04:41.247Z,0.00
2023-05-21T00:05:56.202Z,0.00
2023-05-21T00:07:11.127Z,0.00
2023-05-21T00:08:26.077Z,0.00
2023-05-21T00:09:41.096Z,0.00
2023-05-21T00:10:55.992Z,0.00
2023-05-21T00:12:10.952Z,0.00
2023-05-21T00:13:25.894Z,0.00
2023-05-21T00:14:40.838Z,0.00
2023-05-21T00:15:55.817Z,0.00
2023-05-21T00:17:10.740Z,0.00
2023-05-21T00:18:25.693Z,0.00
2023-05-21T00:19:40.676Z,0.00
2023-05-21T00:20:55.615Z,0.00
2023-05-21T00:22:10.582Z,0.00
2023-05-21T00:23:25.537Z,0.00
2023-05-21T00:24:40.479Z,0.00
2023-05-21T00:25:55.414Z,0.00
2023-05-21T00:27:10.418Z,0.00
2023-05-21T00:28:25.375Z,0.00
2023-05-21T00:29:41.685Z,0.00
2023-05-21T00:30:57.860Z,0.00
2023-05-21T00:32:12.892Z,0.00
2023-05-21T00:33:28.473Z,0.00
2023-05-21T00:34:43.429Z,0.00
2023-05-21T00:35:58.400Z,0.00
2023-05-21T00:37:13.341Z,0.00
2023-05-21T00:38:28.299Z,0.00
2023-05-21T00:39:43.257Z,0.00
2023-05-21T00:40:58.213Z,0.00
2023-05-21T00:42:13.262Z,0.00
2023-05-21T00:43:28.167Z,0.00
2023-05-21T00:44:43.108Z,0.00
2023-05-21T00:45:58.150Z,0.00
2023-05-21T00:47:13.072Z,0.00
2023-05-21T00:48:27.996Z,0.00
2023-05-21T00:49:42.954Z,0.00
2023-05-21T00:50:57.883Z,0.00
2023-05-21T00:52:12.848Z,0.00
2023-05-21T00:53:28.382Z,0.00
2023-05-21T00:54:43.354Z,0.00
2023-05-21T00:55:58.303Z,0.00
2023-05-21T00:57:13.242Z,0.00
2023-05-21T00:58:28.198Z,0.00
2023-05-21T00:59:43.146Z,0.00
2023-05-21T01:02:15.828Z,0.00
2023-05-21T01:03:31.792Z,0.00
2023-05-21T01:04:46.836Z,0.00
2023-05-21T01:06:01.765Z,0.00
2023-05-21T01:07:16.707Z,0.00
2023-05-21T01:08:31.655Z,0.00
2023-05-21T01:09:46.614Z,0.00
2023-05-21T01:11:01.560Z,0.00
2023-05-21T01:12:16.504Z,0.00
2023-05-21T01:13:31.483Z,0.00
2023-05-21T01:14:46.409Z,0.00
2023-05-21T01:16:01.407Z,0.00
2023-05-21T01:17:16.398Z,0.00
2023-05-21T01:18:31.376Z,0.00
2023-05-21T01:19:46.349Z,0.00
2023-05-21T01:21:01.322Z,0.00
2023-05-21T01:22:16.279Z,0.00
2023-05-21T01:23:31.213Z,0.00
2023-05-21T01:24:46.154Z,0.00
2023-05-21T01:26:01.106Z,0.00
2023-05-21T01:27:16.049Z,0.00
2023-05-21T01:28:31.024Z,0.00
2023-05-21T01:29:45.981Z,0.00
2023-05-21T01:31:00.952Z,0.00
2023-05-21T01:32:15.961Z,0.00
2023-05-21T01:33:30.907Z,0.00
2023-05-21T01:34:46.018Z,0.00
2023-05-21T01:36:00.961Z,0.00
2023-05-21T01:37:15.994Z,0.00
2023-05-21T01:38:31.201Z,0.00
2023-05-21T01:39:46.149Z,0.00
2023-05-21T01:41:01.092Z,0.00
2023-05-21T01:42:16.046Z,0.00
2023-05-21T01:43:31.020Z,0.00
2023-05-21T01:44:45.955Z,0.00
2023-05-21T01:46:00.939Z,0.00
2023-05-21T01:47:15.868Z,0.00
2023-05-21T01:48:30.804Z,0.00
2023-05-21T01:49:45.762Z,0.00
2023-05-21T01:51:00.703Z,0.00
2023-05-21T01:52:15.650Z,0.00
2023-05-21T01:53:30.588Z,0.00
2023-05-21T01:54:45.549Z,0.00
2023-05-21T01:56:00.489Z,0.00
2023-05-21T01:57:15.445Z,0.00
2023-05-21T01:58:30.406Z,0.00
2023-05-21T01:59:45.345Z,0.00
2023-05-21T02:01:00.296Z,0.00
2023-05-21T02:02:15.288Z,0.00
2023-05-21T02:03:30.286Z,0.00
2023-05-21T02:04:45.258Z,0.00
2023-05-21T02:06:00.210Z,0.00
2023-05-21T02:07:15.171Z,0.00
2023-05-21T02:08:30.119Z,0.00
2023-05-21T02:09:45.076Z,0.00
2023-05-21T02:11:00.047Z,0.00
2023-05-21T02:12:14.998Z,0.00
2023-05-21T02:13:29.965Z,0.00
2023-05-21T02:14:44.903Z,0.00
2023-05-21T02:15:59.878Z,0.00
2023-05-21T02:17:14.824Z,0.00
2023-05-21T02:18:29.797Z,0.00
2023-05-21T02:19:44.740Z,0.00
2023-05-21T02:20:59.680Z,0.00
2023-05-21T02:22:14.622Z,0.00
2023-05-21T02:23:29.575Z,0.00
2023-05-21T02:24:44.566Z,0.00
2023-05-21T02:25:59.473Z,0.00
2023-05-21T02:27:14.412Z,0.00
2023-05-21T02:28:29.350Z,0.00
2023-05-21T02:29:44.326Z,0.00
2023-05-21T02:30:59.281Z,0.00
2023-05-21T02:32:14.245Z,0.00
2023-05-21T02:33:29.173Z,0.00
2023-05-21T02:34:44.115Z,0.00
2023-05-21T02:35:59.076Z,0.00
2023-05-21T02:37:14.040Z,0.00
2023-05-21T02:38:28.994Z,0.00
2023-05-21T02:39:43.958Z,0.00
2023-05-21T02:40:58.909Z,0.00
2023-05-21T02:42:13.870Z,0.00
2023-05-21T02:43:28.811Z,0.00
2023-05-21T02:44:43.770Z,0.00
2023-05-21T02:45:58.786Z,0.00
2023-05-21T02:47:13.759Z,0.00
2023-05-21T02:48:28.710Z,0.00
2023-05-21T02:49:43.652Z,0.00
2023-05-21T02:50:58.598Z,0.00
2023-05-21T02:52:13.711Z,0.00
2023-05-21T02:53:28.622Z,0.00
2023-05-21T02:54:43.561Z,0.00
2023-05-21T02:55:58.469Z,1.00
2023-05-21T02:57:13.435Z,0.00
2023-05-21T02:58:28.385Z,0.00
2023-05-21T02:59:43.308Z,1.00
2023-05-21T03:00:58.224Z,1.00
2023-05-21T03:02:13.161Z,1.00
2023-05-21T03:03:28.237Z,1.00
2023-05-21T03:04:43.266Z,2.00
2023-05-21T03:05:58.167Z,2.00
2023-05-21T03:07:13.064Z,3.00
2023-05-21T03:08:27.968Z,3.00
2023-05-21T03:09:42.906Z,4.00
2023-05-21T03:10:57.850Z,3.00
2023-05-21T03:12:12.742Z,5.00
2023-05-21T03:13:27.644Z,10.00
2023-05-21T03:14:42.539Z,13.00
2023-05-21T03:15:57.443Z,13.00
2023-05-21T03:17:12.363Z,17.00
2023-05-21T03:18:27.235Z,22.00
2023-05-21T03:19:42.137Z,24.00
2023-05-21T03:20:57.040Z,28.00
2023-05-21T03:22:12.004Z,33.00
2023-05-21T03:23:26.912Z,38.00
2023-05-21T03:24:41.777Z,45.00
2023-05-21T03:25:56.695Z,53.00
2023-05-21T03:27:11.585Z,59.00
2023-05-21T03:28:26.469Z,69.00
2023-05-21T03:29:41.371Z,78.00
2023-05-21T03:30:56.263Z,85.00
2023-05-21T03:32:11.211Z,95.00
2023-05-21T03:33:26.059Z,100.00
2023-05-21T03:34:40.948Z,110.00
2023-05-21T03:35:55.857Z,118.00
2023-05-21T03:37:10.763Z,129.00
2023-05-21T03:38:25.663Z,142.00
2023-05-21T03:39:40.550Z,158.00
2023-05-21T03:40:55.433Z,176.00
2023-05-21T03:42:10.338Z,196.00
2023-05-21T03:43:25.238Z,212.00
2023-05-21T03:44:40.130Z,224.00
2023-05-21T03:45:55.086Z,242.00
2023-05-21T03:47:09.974Z,256.00
2023-05-21T03:48:24.857Z,273.00
2023-05-21T03:49:39.754Z,295.00
2023-05-21T03:50:54.647Z,314.00
2023-05-21T03:52:10.207Z,329.00
2023-05-21T03:53:25.131Z,355.00
2023-05-21T03:54:40.034Z,382.00
2023-05-21T03:55:54.936Z,407.00
2023-05-21T03:57:09.824Z,430.00
2023-05-21T03:58:24.712Z,453.00
2023-05-21T03:59:39.614Z,476.00
2023-05-21T04:00:54.508Z,506.00
2023-05-21T04:02:10.129Z,534.00
2023-05-21T04:03:25.177Z,563.00
2023-05-21T04:04:40.249Z,589.00
2023-05-21T04:05:55.130Z,621.00
2023-05-21T04:07:10.042Z,658.00
2023-05-21T04:08:24.934Z,688.00
2023-05-21T04:09:39.826Z,721.00
2023-05-21T04:10:54.718Z,754.00
2023-05-21T04:12:09.622Z,787.00
2023-05-21T04:13:24.519Z,823.00
2023-05-21T04:14:39.409Z,860.00
2023-05-21T04:15:54.339Z,897.00
2023-05-21T04:17:09.224Z,930.00
2023-05-21T04:18:24.119Z,965.00
2023-05-21T04:19:39.095Z,1010.00
2023-05-21T04:20:54.001Z,1041.00
2023-05-21T04:22:08.859Z,1081.00
2023-05-21T04:23:23.960Z,1125.00
2023-05-21T04:24:38.839Z,1163.00
2023-05-21T04:25:53.754Z,1204.00
2023-05-21T04:27:08.661Z,1251.00
2023-05-21T04:28:23.546Z,1290.00
2023-05-21T04:29:38.433Z,1339.00
2023-05-21T04:30:53.343Z,1383.00
2023-05-21T04:32:08.237Z,1431.00
2023-05-21T04:33:23.159Z,1479.00
2023-05-21T04:34:38.036Z,1530.00
2023-05-21T04:35:52.931Z,1576.00
2023-05-21T04:37:07.838Z,1624.00
2023-05-21T04:38:22.708Z,1687.00
2023-05-21T04:39:37.695Z,1740.00
2023-05-21T04:40:52.601Z,1798.00
2023-05-21T04:42:07.498Z,1858.00
2023-05-21T04:43:22.413Z,1919.00
2023-05-21T04:44:37.320Z,1973.00
2023-05-21T04:45:52.217Z,2039.00
2023-05-21T04:47:07.184Z,2106.00
2023-05-21T04:48:22.118Z,2168.00
2023-05-21T04:49:37.035Z,2234.00
2023-05-21T04:50:51.900Z,2305.00
2023-05-21T04:52:06.832Z,2389.00
2023-05-21T04:53:21.747Z,2452.00
2023-05-21T04:54:36.642Z,2529.00
2023-05-21T04:55:51.535Z,2611.00
2023-05-21T04:57:07.224Z,2691.00
2023-05-21T04:58:22.125Z,2767.00
2023-05-21T04:59:37.039Z,2861.00
2023-05-21T05:00:52.001Z,2943.00
2023-05-21T05:02:06.931Z,3022.00
2023-05-21T05:03:21.869Z,3104.00
2023-05-21T05:04:36.785Z,3184.00
2023-05-21T05:05:51.696Z,3267.00
2023-05-21T05:07:06.659Z,3354.00
2023-05-21T05:08:21.550Z,3434.00
2023-05-21T05:09:36.438Z,3516.00
2023-05-21T05:10:51.337Z,3603.00
2023-05-21T05:12:06.237Z,3659.00
2023-05-21T05:13:21.126Z,3743.00
2023-05-21T05:14:36.034Z,3812.00
2023-05-21T05:15:52.554Z,3904.00
2023-05-21T05:17:08.720Z,3971.00
2023-05-21T05:18:23.617Z,4057.00
2023-05-21T05:19:38.502Z,4149.00
2023-05-21T05:20:53.389Z,4220.00
2023-05-21T05:22:08.281Z,4287.00
2023-05-21T05:23:23.174Z,4368.00
2023-05-21T05:24:38.074Z,4453.00
2023-05-21T05:25:52.958Z,4527.00
2023-05-21T05:27:07.846Z,4603.00
2023-05-21T05:28:22.760Z,4711.00
2023-05-21T05:29:37.657Z,4808.00
2023-05-21T05:30:52.552Z,4904.00
2023-05-21T05:32:07.470Z,4971.00
2023-05-21T05:33:22.360Z,5055.00
2023-05-21T05:34:37.250Z,5130.00
2023-05-21T05:35:52.172Z,5241.00
2023-05-21T05:37:07.070Z,5321.00
2023-05-21T05:38:21.964Z,5378.00
2023-05-21T05:39:36.875Z,5442.00
2023-05-21T05:40:51.760Z,5531.00
2023-05-21T05:42:06.658Z,5604.00
2023-05-21T05:43:21.548Z,5679.00
2023-05-21T05:44:36.452Z,5707.00
2023-05-21T05:45:51.422Z,5791.00
2023-05-21T05:47:06.307Z,5863.00
2023-05-21T05:48:21.222Z,5942.00
2023-05-21T05:49:36.123Z,6029.00
2023-05-21T05:50:51.004Z,6092.00
2023-05-21T05:52:05.911Z,6180.00
2023-05-21T05:53:20.779Z,6272.00
2023-05-21T05:54:35.697Z,6373.00
2023-05-21T05:55:50.581Z,6494.00
2023-05-21T05:57:05.461Z,6597.00
2023-05-21T05:58:20.360Z,6679.00
2023-05-21T05:59:35.280Z,6750.00
2023-05-21T06:00:50.156Z,6807.00
2023-05-21T06:02:05.046Z,7021.00
2023-05-21T06:03:20.089Z,7515.00
2023-05-21T06:04:35.142Z,7622.00
2023-05-21T06:05:50.138Z,7500.00
2023-05-21T06:07:05.019Z,8014.00
2023-05-21T06:08:19.915Z,8193.00
2023-05-21T06:09:34.812Z,7984.00
2023-05-21T06:10:49.690Z,7862.00
2023-05-21T06:12:04.581Z,7932.00
2023-05-21T06:13:19.488Z,8059.00
2023-05-21T06:14:34.423Z,7902.00
2023-05-21T06:15:49.396Z,8040.00
2023-05-21T06:17:04.272Z,8280.00
2023-05-21T06:18:19.158Z,8162.00
2023-05-21T06:19:34.148Z,8078.00
2023-05-21T06:20:49.046Z,7919.00
2023-05-21T06:22:03.930Z,7794.00
2023-05-21T06:23:18.830Z,7804.00
2023-05-21T06:24:33.734Z,7816.00
2023-05-21T06:25:48.656Z,7929.00
2023-05-21T06:27:03.584Z,8077.00
2023-05-21T06:28:18.489Z,8277.00
2023-05-21T06:29:33.382Z,8413.00
2023-05-21T06:30:48.287Z,8316.00
2023-05-21T06:32:03.176Z,8312.00
2023-05-21T06:33:18.238Z,8299.00
2023-05-21T06:34:33.175Z,8331.00
2023-05-21T06:35:48.075Z,8466.00
2023-05-21T06:37:02.965Z,8368.00
2023-05-21T06:38:17.867Z,8328.00
2023-05-21T06:39:32.761Z,8900.00
2023-05-21T06:40:47.677Z,8800.00
2023-05-21T06:42:02.565Z,8681.00
2023-05-21T06:43:17.459Z,8867.00
2023-05-21T06:44:32.334Z,8921.00
2023-05-21T06:45:47.276Z,9124.00
2023-05-21T06:47:02.195Z,9146.00
2023-05-21T06:48:17.061Z,9133.00
2023-05-21T06:49:31.964Z,9216.00
2023-05-21T06:50:46.875Z,9189.00
2023-05-21T06:52:01.800Z,9195.00
2023-05-21T06:53:16.737Z,9333.00
2023-05-21T06:54:31.655Z,9332.00
2023-05-21T06:55:46.543Z,9606.00
2023-05-21T06:57:01.491Z,9962.00
2023-05-21T06:58:16.402Z,10392.00
2023-05-21T06:59:31.295Z,10331.00
2023-05-21T07:00:46.321Z,10724.00
2023-05-21T07:02:03.723Z,10420.00
2023-05-21T07:03:19.540Z,10508.00
2023-05-21T07:04:34.518Z,10964.00
2023-05-21T07:05:49.394Z,11040.00
2023-05-21T07:07:04.339Z,10793.00
2023-05-21T07:08:19.196Z,10997.00
2023-05-21T07:09:34.093Z,11643.00
2023-05-21T07:10:48.987Z,11643.00
2023-05-21T07:12:03.902Z,11495.00
2023-05-21T07:13:18.821Z,12502.00
2023-05-21T07:14:33.708Z,12966.00
2023-05-21T07:15:48.602Z,12499.00
2023-05-21T07:17:03.599Z,10784.00
2023-05-21T07:18:18.508Z,11142.00
2023-05-21T07:19:33.398Z,13409.00
2023-05-21T07:20:48.278Z,14652.00
2023-05-21T07:22:03.164Z,13484.00
2023-05-21T07:23:18.115Z,12791.00
2023-05-21T07:24:33.031Z,13110.00
2023-05-21T07:25:47.978Z,14164.00
2023-05-21T07:27:06.485Z,13670.00
2023-05-21T07:28:22.669Z,13252.00
2023-05-21T07:29:37.575Z,12662.00
2023-05-21T07:30:52.509Z,13563.00
2023-05-21T07:32:07.386Z,15370.00
2023-05-21T07:33:22.269Z,15946.00
2023-05-21T07:34:37.165Z,16362.00
2023-05-21T07:35:52.072Z,16326.00
2023-05-21T07:37:07.037Z,16780.00
2023-05-21T07:38:21.903Z,14085.00
2023-05-21T07:39:36.791Z,14269.00
2023-05-21T07:40:51.680Z,14405.00
2023-05-21T07:42:06.659Z,13999.00
2023-05-21T07:43:21.592Z,13721.00
2023-05-21T07:44:36.454Z,14660.00
2023-05-21T07:45:51.393Z,15325.00
2023-05-21T07:47:06.491Z,21497.00
2023-05-21T07:48:21.360Z,23369.00
2023-05-21T07:49:36.282Z,19652.00
2023-05-21T07:50:51.161Z,19109.00
2023-05-21T07:52:06.095Z,15932.00
2023-05-21T07:53:20.969Z,18630.00
2023-05-21T07:54:35.889Z,22250.00
2023-05-21T07:55:50.786Z,22638.00
2023-05-21T07:57:05.682Z,22815.00
2023-05-21T07:58:20.562Z,22033.00
2023-05-21T07:59:35.469Z,20218.00
2023-05-21T08:00:50.385Z,23388.00
2023-05-21T08:02:05.256Z,20949.00
2023-05-21T08:03:20.283Z,17768.00
2023-05-21T08:04:35.249Z,16208.00
2023-05-21T08:05:50.114Z,15791.00
2023-05-21T08:07:05.010Z,15365.00
2023-05-21T08:08:19.946Z,15102.00
2023-05-21T08:09:34.830Z,15044.00
2023-05-21T08:10:49.810Z,15141.00
2023-05-21T08:12:04.703Z,15077.00
2023-05-21T08:13:19.600Z,14938.00
2023-05-21T08:14:34.500Z,15258.00
2023-05-21T08:15:52.005Z,15516.00
2023-05-21T08:17:07.626Z,15611.00
2023-05-21T08:18:22.593Z,17050.00
2023-05-21T08:19:37.561Z,16988.00
2023-05-21T08:20:52.474Z,16279.00
2023-05-21T08:22:07.563Z,15741.00
2023-05-21T08:23:22.422Z,15341.00
2023-05-21T08:24:37.339Z,15526.00
2023-05-21T08:25:52.252Z,15580.00
2023-05-21T08:27:07.260Z,15846.00
2023-05-21T08:28:22.246Z,17062.00
2023-05-21T08:29:37.181Z,17324.00
2023-05-21T08:30:52.069Z,16901.00
2023-05-21T08:32:07.119Z,15966.00
2023-05-21T08:33:22.050Z,15213.00
2023-05-21T08:34:36.928Z,14490.00
2023-05-21T08:35:51.936Z,14288.00
2023-05-21T08:37:06.851Z,14131.00
2023-05-21T08:38:21.764Z,14432.00
2023-05-21T08:39:36.709Z,15438.00
2023-05-21T08:40:51.667Z,15842.00
2023-05-21T08:42:06.554Z,15386.00
2023-05-21T08:43:21.447Z,14728.00
2023-05-21T08:44:36.344Z,15074.00
2023-05-21T08:45:51.274Z,16022.00
2023-05-21T08:47:06.120Z,16302.00
2023-05-21T08:48:21.012Z,16793.00
2023-05-21T08:49:36.089Z,16950.00
2023-05-21T08:50:51.023Z,16034.00
2023-05-21T08:52:05.962Z,16140.00
2023-05-21T08:53:28.144Z,16051.00
2023-05-21T08:54:40.692Z,15926.00
2023-05-21T08:55:55.624Z,15786.00
2023-05-21T08:57:10.504Z,16478.00
2023-05-21T08:58:25.413Z,16231.00
2023-05-21T08:59:40.310Z,15990.00
2023-05-21T09:00:55.263Z,16243.00
2023-05-21T09:02:10.185Z,16432.00
2023-05-21T09:03:25.117Z,16233.00
2023-05-21T09:04:40.184Z,16690.00
2023-05-21T09:05:55.083Z,16168.00
2023-05-21T09:07:10.039Z,16063.00
2023-05-21T09:08:24.919Z,16167.00
2023-05-21T09:09:39.830Z,16834.00
2023-05-21T09:10:54.755Z,16778.00
2023-05-21T09:12:09.713Z,17059.00
2023-05-21T09:13:24.808Z,16752.00
2023-05-21T09:14:39.717Z,16652.00
2023-05-21T09:15:54.614Z,16573.00
2023-05-21T09:17:09.572Z,16552.00
2023-05-21T09:18:24.520Z,16796.00
2023-05-21T09:19:39.466Z,17055.00
2023-05-21T09:20:54.355Z,16780.00
2023-05-21T09:22:09.299Z,17167.00
2023-05-21T09:23:24.190Z,17426.00
2023-05-21T09:24:39.081Z,17642.00
2023-05-21T09:25:53.964Z,18061.00
2023-05-21T09:27:08.859Z,17979.00
2023-05-21T09:28:23.760Z,19028.00
2023-05-21T09:29:38.702Z,20259.00
2023-05-21T09:30:53.812Z,20014.00
2023-05-21T09:32:08.693Z,19997.00
2023-05-21T09:33:23.694Z,20282.00
2023-05-21T09:34:38.557Z,20183.00
2023-05-21T09:35:53.522Z,19185.00
2023-05-21T09:37:13.601Z,20200.00
2023-05-21T09:38:28.193Z,21273.00
2023-05-21T09:39:43.089Z,21962.00
2023-05-21T09:40:57.995Z,21578.00
2023-05-21T09:42:12.868Z,23498.00
2023-05-21T09:43:27.795Z,23150.00
2023-05-21T09:44:42.687Z,21893.00
2023-05-21T09:45:59.710Z,21441.00
2023-05-21T09:47:16.724Z,21050.00
2023-05-21T09:48:31.662Z,20642.00
2023-05-21T09:49:46.623Z,20231.00
2023-05-21T09:51:01.495Z,19475.00
2023-05-21T09:52:16.410Z,19466.00
2023-05-21T09:53:31.335Z,19105.00
2023-05-21T09:54:46.274Z,19051.00
2023-05-21T09:56:01.173Z,19125.00
2023-05-21T09:57:16.063Z,18685.00
2023-05-21T09:58:30.973Z,18690.00
2023-05-21T09:59:45.853Z,18430.00
2023-05-21T10:01:00.793Z,18284.00
2023-05-21T10:02:15.784Z,18287.00
2023-05-21T10:03:30.818Z,18193.00
2023-05-21T10:04:45.734Z,18071.00
2023-05-21T10:06:00.601Z,18419.00
2023-05-21T10:07:15.822Z,18594.00
2023-05-21T10:08:30.810Z,18450.00
2023-05-21T10:09:45.930Z,18268.00
2023-05-21T10:11:00.891Z,18655.00
2023-05-21T10:12:15.816Z,18383.00
2023-05-21T10:13:30.777Z,19377.00
2023-05-21T10:14:45.668Z,20076.00
2023-05-21T10:16:00.596Z,19972.00
2023-05-21T10:17:15.527Z,20670.00
2023-05-21T10:18:30.488Z,20340.00
2023-05-21T10:19:45.371Z,19640.00
2023-05-21T10:21:00.415Z,19442.00
2023-05-21T10:22:15.342Z,19509.00
2023-05-21T10:23:30.301Z,20290.00
2023-05-21T10:24:45.170Z,20481.00
2023-05-21T10:26:00.059Z,20345.00
2023-05-21T10:27:14.946Z,20114.00
2023-05-21T10:28:29.850Z,20761.00
2023-05-21T10:29:44.739Z,21563.00
2023-05-21T10:30:59.635Z,21705.00
2023-05-21T10:32:14.590Z,20714.00
2023-05-21T10:33:29.580Z,20626.00
2023-05-21T10:34:44.488Z,21477.00
2023-05-21T10:35:59.455Z,21505.00
2023-05-21T10:37:14.362Z,20355.00
2023-05-21T10:38:29.266Z,20954.00
2023-05-21T10:39:44.200Z,20972.00
2023-05-21T10:40:59.108Z,21311.00
2023-05-21T10:42:14.066Z,21722.00
2023-05-21T10:43:28.982Z,23953.00
2023-05-21T10:44:43.999Z,25328.00
2023-05-21T10:45:59.032Z,26091.00
2023-05-21T10:47:13.925Z,26729.00
2023-05-21T10:48:28.852Z,29196.00
2023-05-21T10:49:43.763Z,26883.00
2023-05-21T10:50:58.662Z,24143.00
2023-05-21T10:52:13.562Z,23238.00
2023-05-21T10:53:28.587Z,25898.00
2023-05-21T10:54:43.540Z,25732.00
2023-05-21T10:55:58.462Z,24762.00
2023-05-21T10:57:13.365Z,23615.00
2023-05-21T10:58:29.892Z,23588.00
2023-05-21T10:59:45.071Z,26597.00
2023-05-21T11:00:59.976Z,30585.00
2023-05-21T11:02:14.917Z,28692.00
2023-05-21T11:03:29.888Z,30840.00
2023-05-21T11:04:45.000Z,30927.00
2023-05-21T11:05:59.882Z,75631.00
2023-05-21T11:07:14.799Z,80718.00
2023-05-21T11:08:29.716Z,82852.00
2023-05-21T11:09:44.595Z,81720.00
2023-05-21T11:10:59.481Z,81284.00
2023-05-21T11:12:14.380Z,78982.00
2023-05-21T11:13:29.361Z,74710.00
2023-05-21T11:14:44.217Z,70582.00
2023-05-21T11:15:59.183Z,32535.00
2023-05-21T11:17:14.250Z,34195.00
2023-05-21T11:18:29.131Z,72486.00
2023-05-21T11:19:44.196Z,72630.00
2023-05-21T11:20:59.105Z,72077.00
2023-05-21T11:22:14.066Z,37400.00
2023-05-21T11:23:28.960Z,33412.00
2023-05-21T11:24:43.852Z,35363.00
2023-05-21T11:25:58.836Z,28924.00
2023-05-21T11:27:13.726Z,24984.00
2023-05-21T11:28:28.621Z,26687.00
2023-05-21T11:29:43.530Z,31725.00
2023-05-21T11:30:58.468Z,74661.00
2023-05-21T11:32:13.407Z,74086.00
2023-05-21T11:33:28.356Z,74684.00
2023-05-21T11:34:43.244Z,76385.00
2023-05-21T11:35:58.171Z,77239.00
2023-05-21T11:37:13.044Z,74861.00
2023-05-21T11:38:27.985Z,71597.00
2023-05-21T11:39:42.906Z,34445.00
2023-05-21T11:40:57.776Z,34676.00
2023-05-21T11:42:12.678Z,35985.00
2023-05-21T11:43:27.570Z,33263.00
2023-05-21T11:44:42.481Z,77068.00
2023-05-21T11:45:57.369Z,80798.00
2023-05-21T11:47:12.346Z,79204.00
2023-05-21T11:48:28.920Z,76996.00
2023-05-21T11:49:44.858Z,77048.00
2023-05-21T11:50:59.752Z,78753.00
2023-05-21T11:52:14.662Z,79105.00
2023-05-21T11:53:29.625Z,80577.00
2023-05-21T11:54:44.490Z,81343.00
2023-05-21T11:55:59.616Z,82689.00
2023-05-21T11:57:14.509Z,81780.00
2023-05-21T11:58:29.391Z,81500.00
2023-05-21T11:59:44.296Z,81171.00
2023-05-21T12:00:59.221Z,75257.00
2023-05-21T12:02:14.120Z,75076.00
2023-05-21T12:03:29.019Z,77430.00
2023-05-21T12:04:43.978Z,75029.00
2023-05-21T12:05:58.954Z,74672.00
2023-05-21T12:07:13.823Z,76265.00
2023-05-21T12:08:28.734Z,79540.00
2023-05-21T12:09:43.628Z,78808.00
2023-05-21T12:10:58.508Z,78300.00
2023-05-21T12:12:13.440Z,75600.00
2023-05-21T12:13:28.308Z,75503.00
2023-05-21T12:14:43.212Z,74778.00
2023-05-21T12:15:58.126Z,74180.00
2023-05-21T12:17:13.037Z,76070.00
2023-05-21T12:18:27.922Z,82815.00
2023-05-21T12:19:42.832Z,78000.00
2023-05-21T12:20:57.729Z,75099.00
2023-05-21T12:22:12.626Z,78010.00
2023-05-21T12:23:27.512Z,75601.00
2023-05-21T12:24:42.406Z,77355.00
2023-05-21T12:25:57.311Z,77340.00
2023-05-21T12:27:12.197Z,75323.00
2023-05-21T12:28:27.098Z,76387.00
2023-05-21T12:29:42.010Z,75081.00
2023-05-21T12:30:56.901Z,75105.00
2023-05-21T12:32:11.812Z,74845.00
2023-05-21T12:33:26.684Z,75009.00
2023-05-21T12:34:41.572Z,77146.00
2023-05-21T12:35:56.486Z,80992.00
2023-05-21T12:37:11.361Z,72374.00
2023-05-21T12:38:26.252Z,71216.00
2023-05-21T12:39:41.164Z,73762.00
2023-05-21T12:40:56.048Z,77609.00
2023-05-21T12:42:10.939Z,78203.00
2023-05-21T12:43:25.845Z,78246.00
2023-05-21T12:44:40.732Z,81151.00
2023-05-21T12:45:55.693Z,80403.00
2023-05-21T12:47:10.561Z,80472.00
2023-05-21T12:48:25.447Z,78539.00
2023-05-21T12:49:40.372Z,79313.00
2023-05-21T12:50:55.260Z,79216.00
2023-05-21T12:52:10.139Z,79605.00
2023-05-21T12:53:25.021Z,81453.00
2023-05-21T12:54:39.934Z,80969.00
2023-05-21T12:55:54.822Z,78106.00
2023-05-21T12:57:09.716Z,73707.00
2023-05-21T12:58:24.601Z,69192.00
2023-05-21T12:59:39.484Z,31512.00
2023-05-21T13:00:54.404Z,32542.00
2023-05-21T13:02:09.288Z,26713.00
2023-05-21T13:03:24.183Z,22846.00
2023-05-21T13:04:39.078Z,30121.00
2023-05-21T13:05:53.967Z,33721.00
2023-05-21T13:07:08.873Z,34860.00
2023-05-21T13:08:23.771Z,30732.00
2023-05-21T13:09:38.696Z,33312.00
2023-05-21T13:10:53.607Z,33853.00
2023-05-21T13:12:08.495Z,37384.00
2023-05-21T13:13:23.407Z,30745.00
2023-05-21T13:14:38.279Z,74605.00
2023-05-21T13:15:53.301Z,70368.00
2023-05-21T13:17:08.222Z,25089.00
2023-05-21T13:18:23.201Z,78858.00
2023-05-21T13:19:38.085Z,80620.00
2023-05-21T13:20:52.962Z,80543.00
2023-05-21T13:22:07.901Z,79838.00
2023-05-21T13:23:22.781Z,80302.00
2023-05-21T13:24:37.709Z,81013.00
2023-05-21T13:25:52.613Z,80542.00
2023-05-21T13:27:07.494Z,82001.00
2023-05-21T13:28:22.381Z,81025.00
2023-05-21T13:29:37.272Z,80599.00
2023-05-21T13:30:52.173Z,81696.00
2023-05-21T13:32:07.148Z,81570.00
2023-05-21T13:33:22.095Z,82312.00
2023-05-21T13:34:36.987Z,81790.00
2023-05-21T13:35:51.880Z,82285.00
2023-05-21T13:37:06.764Z,80507.00
2023-05-21T13:38:21.664Z,82482.00
2023-05-21T13:39:36.586Z,81539.00
2023-05-21T13:40:51.486Z,81435.00
2023-05-21T13:42:06.491Z,79987.00
2023-05-21T13:43:21.365Z,80168.00
2023-05-21T13:44:36.262Z,80153.00
2023-05-21T13:45:51.169Z,80945.00
2023-05-21T13:47:06.143Z,80883.00
2023-05-21T13:48:21.064Z,79520.00
2023-05-21T13:49:36.038Z,79098.00
2023-05-21T13:50:50.916Z,79614.00
2023-05-21T13:52:05.815Z,79843.00
2023-05-21T13:53:20.710Z,77980.00
2023-05-21T13:54:35.617Z,78750.00
2023-05-21T13:55:51.128Z,77063.00
2023-05-21T13:57:05.969Z,77807.00
2023-05-21T13:58:20.870Z,78430.00
2023-05-21T13:59:35.832Z,77972.00
2023-05-21T14:00:50.793Z,77810.00
2023-05-21T14:02:05.735Z,78041.00
2023-05-21T14:03:20.618Z,79134.00
2023-05-21T14:04:38.401Z,79670.00
2023-05-21T14:05:54.119Z,78428.00
2023-05-21T14:07:08.999Z,78561.00
2023-05-21T14:08:23.896Z,78339.00
2023-05-21T14:09:38.800Z,78464.00
2023-05-21T14:10:53.694Z,77950.00
2023-05-21T14:12:08.562Z,78004.00
2023-05-21T14:13:23.476Z,78825.00
2023-05-21T14:14:38.360Z,78731.00
2023-05-21T14:15:53.255Z,78086.00
2023-05-21T14:17:08.147Z,78587.00
2023-05-21T14:18:23.052Z,78144.00
2023-05-21T14:19:37.954Z,75687.00
2023-05-21T14:20:52.848Z,76873.00
2023-05-21T14:22:07.750Z,77087.00
2023-05-21T14:23:22.676Z,74338.00
2023-05-21T14:24:37.739Z,75031.00
2023-05-21T14:25:52.677Z,74403.00
2023-05-21T14:27:07.568Z,72457.00
2023-05-21T14:28:22.497Z,35946.00
2023-05-21T14:29:37.517Z,32851.00
2023-05-21T14:30:52.398Z,74068.00
2023-05-21T14:32:07.335Z,72845.00
2023-05-21T14:33:22.196Z,33612.00
2023-05-21T14:34:37.119Z,74798.00
2023-05-21T14:35:52.002Z,76100.00
2023-05-21T14:37:06.922Z,76073.00
2023-05-21T14:38:21.812Z,75861.00
2023-05-21T14:39:36.730Z,76153.00
2023-05-21T14:40:51.670Z,76029.00
2023-05-21T14:42:06.570Z,76057.00
2023-05-21T14:43:21.500Z,75385.00
2023-05-21T14:44:36.385Z,77565.00
2023-05-21T14:45:51.314Z,78146.00
2023-05-21T14:47:06.179Z,78605.00
2023-05-21T14:48:21.073Z,79677.00
2023-05-21T14:49:35.954Z,78456.00
2023-05-21T14:50:51.575Z,76553.00
2023-05-21T14:52:06.463Z,75925.00
2023-05-21T14:53:21.350Z,74042.00
2023-05-21T14:54:36.244Z,74730.00
2023-05-21T14:55:51.161Z,77619.00
2023-05-21T14:57:06.054Z,76551.00
2023-05-21T14:58:20.970Z,77235.00
2023-05-21T14:59:35.855Z,76357.00
2023-05-21T15:00:50.783Z,74163.00
2023-05-21T15:02:05.739Z,74922.00
2023-05-21T15:03:20.649Z,75709.00
2023-05-21T15:04:35.578Z,74230.00
2023-05-21T15:05:50.492Z,72843.00
2023-05-21T15:07:05.378Z,70952.00
2023-05-21T15:08:20.321Z,36182.00
2023-05-21T15:09:35.217Z,32226.00
2023-05-21T15:10:50.107Z,73396.00
2023-05-21T15:12:05.016Z,73140.00
2023-05-21T15:13:19.913Z,73945.00